Dwight, KS

12:09 AM CDT on October 01, 2014 (GMT -0500)
Emporia Municipal | Change Station
CLOSE
Current Station
Airport
Location: Emporia,
Elevation: 368 m
Nearby Weather Stations

Elev 368 m 38.33 °N, 96.19 °W | Updated 16 minutes ago

Rain
Rain
22 °C
Feels Like 22 °C
N
24
Wind Variable Wind from SSE

Today
High -- | Low -- °C
--% Chance of Precip.
Yesterday
High -- | Low -- °C
Precip. -- mm
7:22 AM 7:08 PM
Waxing Crescent, 43% visible
Pressure 1007 hPa
Visibility 16.1 kilometers
Clouds Clear
Dew Point 17 °C
Humidity 75%
Rainfall 0.0 mm
Snow Depth Not available.
UV 0 out of 12
Pollen 4.60 out of 12
Air Quality Not available.
Flu Activity Not available.
METAR KEMP 010453Z AUTO 15013KT 10SM CLR 22/17 A2976 RMK AO2 SLP066 T02170172

More Conditions Fewer Conditions

Pressure 1007 hPa
Visibility 16.1 kilometers
Clouds Clear
Dew Point 17 °C
Humidity 75%
Rainfall 0.0 mm
Snow Depth Not available.
UV 0 out of 12
Pollen 4.60 out of 12
Air Quality Not available.
Flu Activity Not available.
METAR KEMP 010453Z AUTO 15013KT 10SM CLR 22/17 A2976 RMK AO2 SLP066 T02170172

More Conditions Fewer Conditions

10-Day Weather Forecast

Almanac

Astronomy

Oct. 01, 2014 Rise Set
Actual Time 7:22 AM CDT 7:08 PM CDT
Civil Twilight 6:55 AM CDT 7:35 PM CDT
Nautical Twilight 6:24 AM CDT 8:06 PM CDT
Astronomical Twilight 5:53 AM CDT 8:37 PM CDT
Moon 2:21 PM CDT No Moon Set
Length of Visible Light 12h 39m
Length of Day
11h 46m
Tomorrow will be 2m 29s shorter.
Waxing Crescent, 43% of the Moon is Illuminated
Today
Waxing Crescent
Oct 1
First Quarter
Oct 8
Full
Oct 15
Last Quarter
Oct 23
New

Today's Extremes

State Highs State Lows

Community

WunderPhotos

Upload Photos

1,757,850 photos uploaded!

Nearby

Snow Depth

Station Depth Elevation
No new snow has been reported.

Earthquake Activity

City Distance Mag. Time & Date
Medford, Oklahoma 247 kilometers 2.5 10:49 PM CDT
2014-09-30
Medford, Oklahoma 249 kilometers 2.8 8:30 PM CDT
2014-09-30
Parsons, Kansas 190 kilometers 3.0 7:33 PM CDT
2014-09-30
Harper, Kansas 213 kilometers 2.9 1:49 PM CDT
2014-09-30
Minimum magnitude displayed is 2.5.

Coastal Water Temperatures

Place Temperature
No Stations Reporting

Nearby Weather Stations